Kezdőlap
METAR-TAF:

METAR-TAF

Repülőterek :

Kansas City, Missouri, Amerikai Egyesült Államok

földrajzi szélesség: 39-17-50N, földrajzi hosszúság: 094-43-50W, magasság: 312 m

Jelenlegi meteorológiai megfigyelések

A jelentés 1 órával és 1 perccel ezelõtt készült, 07:53 UTC
Kelet-északkeleti szél 5 kt
Hőmérséklet 4°C
Páratartalom 65%
Légköri nyomás 1030 hPa
Látótávolság: 16.1 km
Derült ég

METAR: KMCI 200753Z 07005KT 10SM CLR 04/M02 A3041 RMK AO2 SLP298 T00441017

Idő: 03:54 (08:54 UTC)

Előrejelzés

A jelentés 3 órával és 34 perccel ezelõtt készült, 05:20 UTC
Az előrejelzés 20-én 06 óra UTC és 21-én 06 óra UTC között érvényes
Délkeleti szél 6 kt
Látótávolság: 10 km
Kevés felhő 25000 lábon
20-én 1500 órától UTC szerint
Délkeleti szél 11 kt
Látótávolság: 10 km
Szakadozott felhőzet 20000 lábon

TAF: KMCI 200520Z 2006/2106 13006KT P6SM FEW250 FM201500 13011KT P6SM BKN200

Meteorológiai megfigyelések és előrejelzések több, mint 4000 repülőtéren (METAR és TAF jelentéseket).

A térképen piros és sárga pontok jelzik az elérhető meteorológiai állomásokat.

Mozgassa az egeret a pont fölött, hogy megjelenjen az állomás neve.

Azután kattintson az időjárási megfigyelések és előrejelzések megtekintéséhez.

A térkép megváltoztatása: kattintson a fekete keresztel jelölt zöld gombra ráközelítéshez, a vonallal jelölt zöld gombra távolításhoz, vagy a zöld nyilakra a szomszédos térképek eléréséhez.


METAR-TAF: